Time;durP1;ratioP1;P1;durP2;ratioP2;P2;SDS_P1;SDS_P2;PMS_P1;PMS_P2;Temp;Humidity;BMP_temperature;BMP_pressure;BME280_temperature;BME280_humidity;BME280_pressure;Samples;Min_cycle;Max_cycle;Signal;HPM_P1;HPM_P2
2021/04/29 00:01:07;;;;;;;6.25;2.17;;;;;;;10.99;77.24;94909.59;4938036;29;20065;-71
2021/04/29 00:03:36;;;;;;;7.93;2.40;;;;;;;10.99;77.04;94899.84;4937866;29;20050;-68
2021/04/29 00:06:02;;;;;;;6.03;2.13;;;;;;;10.97;77.30;94898.53;4937230;29;20074;-70
2021/04/29 00:08:28;;;;;;;6.30;2.40;;;;;;;10.97;77.15;94899.31;4937797;29;20040;-71
2021/04/29 00:10:54;;;;;;;6.53;2.13;;;;;;;10.88;77.34;94897.53;4938318;29;20073;-69
2021/04/29 00:13:21;;;;;;;7.63;2.50;;;;;;;10.95;77.26;94898.78;4937262;29;20055;-70
2021/04/29 00:15:48;;;;;;;6.50;2.10;;;;;;;10.94;77.70;94896.44;4938939;29;20047;-69
2021/04/29 00:18:13;;;;;;;6.50;2.03;;;;;;;10.92;76.95;94898.53;4939370;29;20046;-71
2021/04/29 00:20:39;;;;;;;6.63;2.10;;;;;;;10.98;76.59;94898.28;4939356;29;20399;-71
2021/04/29 00:23:07;;;;;;;5.43;1.98;;;;;;;10.93;76.71;94894.88;4938612;29;20130;-71
2021/04/29 00:25:33;;;;;;;;;;;;;;;10.90;77.02;94901.44;4939272;29;20126;-71
2021/04/29 00:27:58;;;;;;;6.15;1.92;;;;;;;10.95;77.06;94898.00;4941702;29;19996;-73
2021/04/29 00:30:25;;;;;;;6.72;1.90;;;;;;;10.91;76.72;94902.22;4939525;29;20052;-74
2021/04/29 00:32:51;;;;;;;5.90;1.98;;;;;;;11.04;76.44;94897.19;4939384;29;20059;-72
2021/04/29 00:35:17;;;;;;;6.05;1.83;;;;;;;10.98;77.28;94902.75;4938158;29;20050;-74
2021/04/29 00:37:43;;;;;;;5.72;1.83;;;;;;;11.00;76.20;94908.50;4936910;29;20058;-70
2021/04/29 00:40:09;;;;;;;4.97;1.60;;;;;;;10.92;77.01;94906.44;4937071;29;20621;-72
2021/04/29 00:42:36;;;;;;;5.78;1.85;;;;;;;11.06;76.85;94904.81;4936741;29;20047;-69
2021/04/29 00:45:03;;;;;;;5.88;1.95;;;;;;;11.06;75.76;94904.81;4936311;29;20048;-70
2021/04/29 00:47:30;;;;;;;4.93;1.73;;;;;;;11.11;75.55;94899.53;4935240;29;20044;-68
2021/04/29 00:49:57;;;;;;;5.53;1.92;;;;;;;10.95;76.49;94898.00;4936988;29;20057;-71
2021/04/29 00:52:22;;;;;;;6.72;1.70;;;;;;;10.93;77.11;94900.13;4937622;29;20035;-73
2021/04/29 00:54:48;;;;;;;5.68;1.80;;;;;;;10.95;76.68;94898.00;4941578;29;20463;-72
2021/04/29 00:57:14;;;;;;;4.95;1.67;;;;;;;10.99;76.12;94899.06;4937812;29;20031;-69
2021/04/29 00:59:39;;;;;;;6.43;1.90;;;;;;;10.93;77.09;94910.66;4938177;29;20047;-68
2021/04/29 01:02:07;;;;;;;6.85;1.85;;;;;;;10.85;77.00;94913.84;4937746;29;20048;-69
2021/04/29 01:04:41;;;;;;;5.78;1.80;;;;;;;10.76;77.08;94916.22;4939613;29;20048;-74
2021/04/29 01:07:11;;;;;;;6.50;2.10;;;;;;;10.75;77.71;94923.31;4936977;29;20047;-73
2021/04/29 01:09:43;;;;;;;6.20;1.70;;;;;;;10.63;78.27;94925.47;4935127;29;20337;-69
2021/04/29 01:12:14;;;;;;;4.97;1.70;;;;;;;10.62;78.37;94931.78;4936590;29;20047;-71
2021/04/29 01:14:42;;;;;;;4.57;1.60;;;;;;;10.66;78.02;94924.94;4935602;29;20135;-75
2021/04/29 01:17:11;;;;;;;4.57;1.60;;;;;;;10.59;78.38;94926.25;4936617;29;20048;-72
2021/04/29 01:19:42;;;;;;;5.88;1.70;;;;;;;10.66;78.13;94922.31;4936149;29;20044;-72
2021/04/29 01:22:09;;;;;;;5.95;1.90;;;;;;;10.61;78.44;94918.91;4936293;29;20054;-72
2021/04/29 01:24:44;;;;;;;5.75;1.80;;;;;;;10.75;77.99;94915.44;4935998;29;20051;-74
2021/04/29 01:27:11;;;;;;;4.80;1.52;;;;;;;10.65;78.20;94914.66;4935592;29;20047;-72
2021/04/29 01:29:38;;;;;;;4.83;1.80;;;;;;;10.71;78.31;94914.41;4933942;29;20403;-69
2021/04/29 01:32:08;;;;;;;5.05;1.58;;;;;;;10.72;77.91;94915.19;4935603;29;20075;-69
2021/04/29 01:34:39;;;;;;;5.43;1.67;;;;;;;10.72;77.89;94920.47;4935863;29;20149;-69
2021/04/29 01:37:06;;;;;;;5.82;2.10;;;;;;;10.79;78.22;94926.22;4934127;29;20039;-73
2021/04/29 01:39:33;;;;;;;6.20;1.80;;;;;;;10.94;76.91;94917.50;4935435;29;20138;-67
2021/04/29 01:42:00;;;;;;;4.45;1.60;;;;;;;11.02;77.37;94922.19;4935371;29;20103;-68
2021/04/29 01:44:29;;;;;;;5.35;1.90;;;;;;;11.00;76.77;94929.56;4933451;29;20051;-69
2021/04/29 01:46:57;;;;;;;5.93;2.05;;;;;;;11.07;76.84;94926.63;4934091;29;20110;-69
2021/04/29 01:49:23;;;;;;;5.60;1.90;;;;;;;10.91;77.45;94936.44;4935481;29;20043;-69
2021/04/29 01:51:50;;;;;;;5.50;1.90;;;;;;;10.90;77.48;94929.59;4935003;29;20154;-68
2021/04/29 01:54:17;;;;;;;8.02;2.08;;;;;;;11.09;76.94;94937.69;4934791;29;20051;-67
2021/04/29 01:56:43;;;;;;;5.47;1.90;;;;;;;10.88;77.74;94929.09;4934941;29;20035;-68
2021/04/29 01:59:09;;;;;;;5.63;2.00;;;;;;;10.92;77.58;94938.78;4934919;29;20130;-68
2021/04/29 02:01:40;;;;;;;5.78;1.98;;;;;;;11.07;77.17;94927.44;4934002;29;20142;-67
2021/04/29 02:04:07;;;;;;;6.13;2.05;;;;;;;11.08;76.97;94931.63;4935876;29;20095;-68
2021/04/29 02:06:32;;;;;;;5.85;2.10;;;;;;;11.03;77.62;94929.81;4936849;29;20047;-69
2021/04/29 02:08:58;;;;;;;6.07;2.10;;;;;;;11.08;77.39;94931.63;4936938;29;20479;-68
2021/04/29 02:11:24;;;;;;;5.20;1.98;;;;;;;11.18;77.25;94923.69;4954007;23;20419;-74
2021/04/29 02:13:52;;;;;;;6.07;2.10;;;;;;;11.04;77.29;94931.41;4934809;29;20099;-74
2021/04/29 02:16:24;;;;;;;6.38;2.15;;;;;;;10.92;78.33;94920.38;4934430;29;20455;-75
2021/04/29 02:18:52;;;;;;;5.72;2.13;;;;;;;10.91;78.88;94923.28;4935852;29;20044;-72
2021/04/29 02:21:20;;;;;;;6.13;2.30;;;;;;;10.97;78.98;94932.72;4939407;29;20368;-72
2021/04/29 02:23:50;;;;;;;6.20;2.30;;;;;;;10.88;79.30;94923.84;4939074;29;20089;-71
2021/04/29 02:26:18;;;;;;;6.10;2.30;;;;;;;10.99;78.02;94926.16;4940332;29;20043;-72
2021/04/29 02:28:44;;;;;;;6.70;2.70;;;;;;;10.91;78.90;94937.22;4939108;29;20040;-72
2021/04/29 02:31:11;;;;;;;7.47;2.83;;;;;;;10.88;78.67;94934.34;4939811;29;20103;-72
2021/04/29 02:33:37;;;;;;;6.15;2.38;;;;;;;10.93;78.61;94940.38;4936528;29;20059;-73
2021/04/29 02:36:09;;;;;;;6.75;2.40;;;;;;;10.95;78.73;94929.59;4935054;29;20213;-72
2021/04/29 02:38:38;;;;;;;5.85;2.20;;;;;;;10.99;78.64;94941.16;4933632;29;20091;-72
2021/04/29 02:41:05;;;;;;;6.20;2.20;;;;;;;10.95;78.71;94940.09;4937208;29;20063;-74
2021/04/29 02:43:33;;;;;;;6.15;2.42;;;;;;;10.93;78.20;94937.75;4933097;29;20472;-74
2021/04/29 02:46:01;;;;;;;6.47;2.38;;;;;;;11.05;78.28;94945.34;4934390;29;20463;-74
2021/04/29 02:48:29;;;;;;;6.10;2.13;;;;;;;11.07;78.24;94945.06;4935231;29;20056;-74
2021/04/29 02:50:54;;;;;;;5.80;2.10;;;;;;;11.14;77.92;94937.66;4936735;29;20068;-71
2021/04/29 02:53:21;;;;;;;6.28;2.20;;;;;;;11.15;78.21;94945.31;4937494;29;20048;-70
2021/04/29 02:55:48;;;;;;;4.47;1.80;;;;;;;11.12;77.93;94943.19;4937071;29;20047;-71
2021/04/29 02:58:16;;;;;;;7.60;2.17;;;;;;;11.18;77.16;94942.13;4938550;29;20460;-71
2021/04/29 03:00:43;;;;;;;5.70;1.92;;;;;;;11.07;78.52;94951.09;4937714;29;20036;-71
2021/04/29 03:03:09;;;;;;;7.25;2.22;;;;;;;11.20;78.54;94953.19;4937750;29;20049;-72
2021/04/29 03:05:36;;;;;;;5.55;2.13;;;;;;;11.10;79.00;94953.22;4936381;29;20044;-72
2021/04/29 03:08:02;;;;;;;5.97;2.35;;;;;;;11.02;78.79;94951.13;4937975;29;20046;-72
2021/04/29 03:10:30;;;;;;;6.20;2.47;;;;;;;11.06;78.78;94952.16;4959315;28;20075;-71
2021/04/29 03:12:55;;;;;;;6.75;2.58;;;;;;;11.10;77.78;94963.75;4943806;29;20158;-73
2021/04/29 03:15:21;;;;;;;8.80;3.20;;;;;;;11.09;78.57;94967.44;4938264;29;20159;-74
2021/04/29 03:17:47;;;;;;;7.72;3.10;;;;;;;11.04;79.53;94960.34;4938532;29;20511;-74
2021/04/29 03:20:13;;;;;;;6.72;2.80;;;;;;;11.02;80.47;94965.06;4936427;29;20043;-73
2021/04/29 03:22:39;;;;;;;7.43;3.00;;;;;;;10.95;80.31;94963.78;4937752;29;20476;-74
2021/04/29 03:25:06;;;;;;;6.90;2.95;;;;;;;10.92;81.34;94974.84;4937016;29;20049;-74
2021/04/29 03:27:35;;;;;;;6.78;3.10;;;;;;;10.95;80.98;94974.31;4937452;29;20130;-74
2021/04/29 03:30:01;;;;;;;6.50;2.70;;;;;;;10.84;81.54;94978.03;4937559;29;20110;-74
2021/04/29 03:32:26;;;;;;;7.15;3.03;;;;;;;10.84;81.05;94985.91;4938495;29;20048;-73
2021/04/29 03:34:54;;;;;;;6.72;2.78;;;;;;;10.67;81.62;94979.13;4936530;29;20130;-73
2021/04/29 03:37:20;;;;;;;;;;;;;;;10.66;81.86;94977.53;4937564;29;20044;-71
2021/04/29 03:39:45;;;;;;;6.90;2.78;;;;;;;10.67;82.39;94989.63;4937668;29;19929;-73
2021/04/29 03:42:12;;;;;;;6.93;2.40;;;;;;;10.84;81.36;94991.19;4937577;29;20475;-73
2021/04/29 03:44:39;;;;;;;7.20;2.80;;;;;;;10.63;82.34;94996.47;4938373;29;20135;-76
2021/04/29 03:47:05;;;;;;;7.78;2.60;;;;;;;10.69;81.77;94995.41;4937261;29;20488;-73
2021/04/29 03:49:34;;;;;;;6.88;2.55;;;;;;;10.63;81.46;94996.47;4955062;29;20135;-74
2021/04/29 03:52:01;;;;;;;6.13;2.30;;;;;;;10.60;81.41;95002.28;4959105;28;20043;-74
2021/04/29 03:54:26;;;;;;;6.50;2.50;;;;;;;10.62;81.23;95005.41;4959037;29;20023;-74
2021/04/29 03:56:53;;;;;;;6.65;2.40;;;;;;;10.63;81.31;95007.00;4959278;28;20055;-75
2021/04/29 03:59:18;;;;;;;6.68;2.45;;;;;;;10.59;81.01;95013.03;4957651;29;20035;-72
2021/04/29 04:01:45;;;;;;;5.72;2.10;;;;;;;10.57;81.27;95008.06;4957962;28;20074;-74
2021/04/29 04:04:11;;;;;;;7.50;2.20;;;;;;;10.57;81.24;95018.56;4941450;29;20071;-75
2021/04/29 04:06:39;;;;;;;7.57;2.30;;;;;;;10.61;80.57;95017.00;4936196;29;20087;-75
2021/04/29 04:09:04;;;;;;;;;;;;;;;10.56;80.54;95014.38;4923129;29;20179;-76
2021/04/29 04:11:30;;;;;;;6.82;2.40;;;;;;;10.50;80.77;95018.06;4936668;29;19954;-76
2021/04/29 04:13:57;;;;;;;5.25;1.98;;;;;;;10.56;79.78;95016.22;4937150;29;20036;-73
2021/04/29 04:16:22;;;;;;;5.68;2.15;;;;;;;10.47;80.04;95014.09;4936967;29;20474;-73
2021/04/29 04:18:49;;;;;;;6.10;2.15;;;;;;;10.56;79.36;95024.09;4924257;29;20491;-74
2021/04/29 04:21:15;;;;;;;5.65;2.20;;;;;;;10.49;79.47;95021.72;4918461;29;20051;-74
2021/04/29 04:23:40;;;;;;;5.30;1.90;;;;;;;10.46;79.82;95027.50;4938147;29;20039;-77
2021/04/29 04:26:06;;;;;;;6.32;2.10;;;;;;;10.43;79.31;95033.28;4939578;29;20057;-76
2021/04/29 04:28:32;;;;;;;5.30;1.75;;;;;;;10.46;78.69;95044.06;4939128;29;20070;-75
2021/04/29 04:30:57;;;;;;;6.68;1.90;;;;;;;10.51;78.73;95051.97;4940737;29;20043;-75
2021/04/29 04:33:23;;;;;;;5.05;1.55;;;;;;;10.63;77.16;95059.59;4939636;29;20102;-74
2021/04/29 04:35:49;;;;;;;6.25;1.60;;;;;;;10.64;74.47;95060.38;4941735;29;20131;-77
2021/04/29 04:38:15;;;;;;;5.85;1.60;;;;;;;10.84;74.35;95070.09;4941200;29;20048;-78
2021/04/29 04:40:41;;;;;;;4.53;1.33;;;;;;;10.79;69.20;95070.88;4930469;29;20462;-75
2021/04/29 04:43:07;;;;;;;4.55;1.25;;;;;;;10.86;68.22;95076.66;4919262;29;20123;-74
2021/04/29 04:45:32;;;;;;;4.35;1.15;;;;;;;11.03;67.24;95077.19;4919122;29;20048;-76
2021/04/29 04:47:58;;;;;;;3.45;1.15;;;;;;;10.87;66.35;95082.72;4921033;29;20036;-78
2021/04/29 04:50:24;;;;;;;3.88;1.20;;;;;;;10.93;66.39;95084.31;4929156;29;20055;-72
2021/04/29 04:52:50;;;;;;;5.32;1.33;;;;;;;11.12;66.15;95102.94;4936897;29;20470;-75
2021/04/29 04:55:16;;;;;;;6.22;1.40;;;;;;;11.01;65.59;95102.16;4933788;29;20506;-72
2021/04/29 04:57:42;;;;;;;4.25;1.30;;;;;;;10.98;63.81;95113.25;4935734;29;20503;-71
2021/04/29 05:00:09;;;;;;;5.43;1.40;;;;;;;10.90;63.49;95117.19;4936166;29;20410;-71
2021/04/29 05:02:38;;;;;;;5.75;1.60;;;;;;;10.88;64.07;95123.78;4935330;29;20070;-69
2021/04/29 05:05:06;;;;;;;5.07;1.70;;;;;;;10.82;63.10;95124.81;4947651;29;20040;-70
2021/04/29 05:07:32;;;;;;;5.77;1.60;;;;;;;10.82;63.54;95135.34;4933690;29;20059;-71
2021/04/29 05:09:59;;;;;;;4.45;1.40;;;;;;;10.70;62.98;95133.75;4933444;29;20048;-77
2021/04/29 05:12:26;;;;;;;4.80;1.50;;;;;;;10.77;62.76;95144.81;4936253;28;20054;-84
2021/04/29 05:14:51;;;;;;;6.43;1.70;;;;;;;10.92;62.04;95140.59;4937264;29;20400;-81
2021/04/29 05:17:17;;;;;;;5.93;1.90;;;;;;;10.78;62.48;95151.66;4941827;29;20084;-78
2021/04/29 05:19:44;;;;;;;5.93;1.73;;;;;;;10.88;62.33;95148.22;4956669;28;20058;-83
2021/04/29 05:22:10;;;;;;;6.22;1.80;;;;;;;10.83;62.19;95144.81;4953923;28;20072;-82
2021/04/29 05:24:36;;;;;;;6.30;2.00;;;;;;;10.70;63.34;95146.88;4939126;29;20440;-81
2021/04/29 05:27:03;;;;;;;6.55;1.92;;;;;;;10.73;65.18;95154.28;4941743;29;20114;-86
2021/04/29 05:29:29;;;;;;;6.00;2.20;;;;;;;10.66;64.87;95158.22;4935577;29;20062;-78
2021/04/29 05:31:57;;;;;;;6.70;1.80;;;;;;;10.67;63.97;95165.84;4940990;29;20048;-78
2021/04/29 05:34:23;;;;;;;6.07;1.92;;;;;;;10.60;65.88;95165.31;4939129;29;20051;-78
2021/04/29 05:36:49;;;;;;;6.30;1.80;;;;;;;10.70;65.29;95154.00;4939138;29;20048;-83
2021/04/29 05:39:14;;;;;;;6.20;2.00;;;;;;;10.54;66.33;95163.69;4928287;29;20119;-86
2021/04/29 05:41:40;;;;;;;7.25;2.10;;;;;;;10.40;66.65;95171.31;4938140;29;20117;-85
2021/04/29 05:44:09;;;;;;;6.00;2.20;;;;;;;10.42;66.43;95163.16;4936492;29;20044;-79
2021/04/29 05:46:34;;;;;;;10.80;2.70;;;;;;;10.42;67.89;95169.19;4944901;29;20040;-82
2021/04/29 05:49:00;;;;;;;7.45;2.33;;;;;;;10.69;66.37;95176.88;4939564;29;20047;-78
2021/04/29 05:51:28;;;;;;;6.65;2.28;;;;;;;10.67;65.42;95160.56;4949711;29;20064;-77
2021/04/29 05:53:54;;;;;;;6.63;2.25;;;;;;;10.68;65.00;95167.41;4954001;28;20038;-75
2021/04/29 05:56:19;;;;;;;8.52;2.38;;;;;;;10.87;64.79;95169.53;4946394;29;20052;-73
2021/04/29 05:58:45;;;;;;;6.85;2.40;;;;;;;10.97;63.58;95169.53;4944694;29;20048;-76
2021/04/29 06:01:12;;;;;;;7.90;2.53;;;;;;;11.06;63.20;95157.44;4943480;29;20095;-82
2021/04/29 06:03:38;;;;;;;6.72;2.20;;;;;;;11.14;62.70;95162.19;4941520;29;20063;-75
2021/04/29 06:06:04;;;;;;;7.82;2.45;;;;;;;11.19;62.88;95175.34;4934815;29;20072;-74
2021/04/29 06:08:30;;;;;;;7.20;2.38;;;;;;;11.53;61.91;95170.28;4935006;29;20048;-75
2021/04/29 06:10:56;;;;;;;7.18;2.50;;;;;;;11.65;62.16;95169.97;4936778;29;20047;-73
2021/04/29 06:13:22;;;;;;;9.35;2.53;;;;;;;11.72;61.27;95167.06;4937798;29;20487;-75
2021/04/29 06:15:47;;;;;;;8.38;2.50;;;;;;;11.73;61.31;95174.72;4935540;29;20047;-78
2021/04/29 06:18:14;;;;;;;7.90;2.35;;;;;;;12.10;59.87;95170.91;4938061;29;20107;-80
2021/04/29 06:20:42;;;;;;;5.85;1.83;;;;;;;11.96;58.97;95175.19;4939875;29;20047;-83
2021/04/29 06:23:08;;;;;;;;;;;;;;;11.82;60.67;95181.03;4940954;29;20047;-82
2021/04/29 06:25:36;;;;;;;7.65;2.38;;;;;;;11.96;59.67;95180.47;4940877;29;20032;-79
2021/04/29 06:28:03;;;;;;;;;;;;;;;12.09;59.69;95190.44;4947843;29;20039;-81
2021/04/29 06:30:29;;;;;;;5.88;2.00;;;;;;;11.96;60.03;95191.00;4944026;29;19974;-72
2021/04/29 06:32:55;;;;;;;5.88;2.20;;;;;;;11.61;60.69;95200.53;4937867;29;20054;-75
2021/04/29 06:35:22;;;;;;;7.18;1.98;;;;;;;11.74;60.16;95207.91;4939898;29;20046;-79
2021/04/29 06:37:47;;;;;;;8.40;2.15;;;;;;;11.70;60.99;95208.69;4940524;29;20052;-79
2021/04/29 06:40:14;;;;;;;6.65;2.13;;;;;;;11.75;61.29;95212.13;4952982;29;20023;-79
2021/04/29 06:42:40;;;;;;;7.28;2.20;;;;;;;11.59;61.81;95210.56;4948800;29;20103;-74
2021/04/29 06:45:07;;;;;;;7.13;2.00;;;;;;;11.69;62.44;95209.75;4940572;29;20043;-74
2021/04/29 06:47:33;;;;;;;22.75;7.70;;;;;;;11.93;63.04;95212.63;4936571;29;20455;-67
2021/04/29 06:49:59;;;;;;;6.97;2.13;;;;;;;11.91;63.42;95214.75;4935438;29;20040;-67
2021/04/29 06:52:26;;;;;;;6.95;2.10;;;;;;;11.73;65.76;95214.25;4934624;29;20091;-67
2021/04/29 06:54:51;;;;;;;6.05;2.00;;;;;;;11.46;67.29;95230.34;4943012;29;20547;-75
2021/04/29 06:57:20;;;;;;;7.43;2.47;;;;;;;11.20;69.30;95221.66;4944044;29;20051;-74
2021/04/29 06:59:48;;;;;;;7.55;2.20;;;;;;;11.11;69.75;95230.34;4941163;29;20043;-76
2021/04/29 07:02:14;;;;;;;;;;;;;;;10.92;70.27;95224.78;4933850;29;20094;-71
2021/04/29 07:04:40;;;;;;;7.05;2.10;;;;;;;11.09;71.86;95222.72;4919250;29;19919;-69
2021/04/29 07:07:05;;;;;;;6.82;2.40;;;;;;;11.09;72.40;95212.19;4918237;29;20538;-75
2021/04/29 07:09:32;;;;;;;7.65;2.88;;;;;;;11.06;73.34;95210.06;4929733;29;20042;-76
2021/04/29 07:11:57;;;;;;;8.00;2.67;;;;;;;11.05;73.21;95219.00;4945802;29;20044;-74
2021/04/29 07:14:23;;;;;;;8.18;2.40;;;;;;;10.94;73.04;95217.44;4930659;29;20115;-72
2021/04/29 07:16:51;;;;;;;7.07;2.85;;;;;;;10.75;73.47;95212.66;4926684;29;20055;-72
2021/04/29 07:19:17;;;;;;;;;;;;;;;11.01;73.00;95213.47;4934815;29;20047;-75
2021/04/29 07:21:42;;;;;;;9.18;2.75;;;;;;;11.01;72.75;95212.69;4940711;29;20338;-77
2021/04/29 07:24:09;;;;;;;7.65;2.70;;;;;;;11.22;72.99;95221.38;4930794;29;20099;-74
2021/04/29 07:26:36;;;;;;;7.60;2.60;;;;;;;11.43;71.94;95219.53;4936335;29;20122;-74
2021/04/29 07:29:02;;;;;;;7.15;2.83;;;;;;;11.38;72.23;95211.63;4935503;29;20039;-76
2021/04/29 07:31:28;;;;;;;7.57;3.20;;;;;;;11.66;70.57;95216.34;4937389;29;20582;-76
2021/04/29 07:33:53;;;;;;;7.60;2.92;;;;;;;11.84;70.22;95220.31;4939947;29;20052;-76
2021/04/29 07:36:22;;;;;;;9.02;3.00;;;;;;;11.85;68.26;95206.06;4933711;29;20039;-71
2021/04/29 07:38:48;;;;;;;7.13;2.70;;;;;;;11.55;68.90;95191.06;4937390;29;20055;-76
2021/04/29 07:41:14;;;;;;;7.93;2.90;;;;;;;11.87;68.17;95211.84;4940878;29;20044;-78
2021/04/29 07:43:40;;;;;;;10.32;3.17;;;;;;;11.65;67.94;95217.41;4943536;29;20076;-75
2021/04/29 07:46:06;;;;;;;9.02;3.20;;;;;;;11.80;67.75;95217.38;4956724;29;20047;-74
2021/04/29 07:48:32;;;;;;;7.80;3.10;;;;;;;11.63;66.95;95219.53;4939579;29;20059;-73
2021/04/29 07:51:00;;;;;;;8.93;3.22;;;;;;;11.65;67.31;95211.34;4939080;29;20051;-72
2021/04/29 07:53:29;;;;;;;7.63;3.42;;;;;;;11.75;67.06;95212.13;4935785;29;20522;-69
2021/04/29 07:55:57;;;;;;;8.32;3.50;;;;;;;11.57;67.46;95225.84;4938477;29;20472;-73
2021/04/29 07:58:23;;;;;;;9.40;3.60;;;;;;;11.67;67.39;95236.34;4937551;29;20122;-69
2021/04/29 08:00:50;;;;;;;10.52;3.53;;;;;;;11.48;67.02;95237.97;4938788;29;20060;-75
2021/04/29 08:03:16;;;;;;;8.90;3.40;;;;;;;11.70;67.11;95240.31;4938698;29;20050;-70
2021/04/29 08:05:41;;;;;;;8.18;3.60;;;;;;;11.64;65.11;95231.63;4940365;29;20048;-71
2021/04/29 08:08:09;;;;;;;10.50;3.63;;;;;;;11.68;65.55;95242.44;4938964;29;20043;-70
2021/04/29 08:10:35;;;;;;;;;;;;;;;11.73;65.46;95243.22;4958364;23;20063;-76
2021/04/29 08:13:01;;;;;;;11.52;3.67;;;;;;;11.76;64.56;95228.72;4944103;29;20361;-74
2021/04/29 08:15:27;;;;;;;8.82;3.25;;;;;;;12.02;63.83;95245.28;4941665;29;20054;-76
2021/04/29 08:17:56;;;;;;;8.52;3.50;;;;;;;11.78;63.97;95237.13;4939528;29;20047;-78
2021/04/29 08:20:21;;;;;;;8.32;3.53;;;;;;;12.32;63.45;95239.91;4940686;29;20162;-76
2021/04/29 08:22:48;;;;;;;9.25;4.05;;;;;;;12.27;63.01;95239.16;4939748;29;20051;-73
2021/04/29 08:25:13;;;;;;;8.88;3.63;;;;;;;12.31;63.04;95235.69;4923462;29;20052;-72
2021/04/29 08:27:40;;;;;;;9.38;4.40;;;;;;;12.19;63.09;95248.38;4934358;29;20187;-73
2021/04/29 08:30:07;;;;;;;9.05;3.90;;;;;;;12.31;62.81;95237.53;4936803;28;20086;-84
2021/04/29 08:32:33;;;;;;;10.32;3.75;;;;;;;12.64;61.62;95254.53;4931525;29;20492;-75
2021/04/29 08:35:00;;;;;;;8.55;3.70;;;;;;;13.00;60.92;95251.69;4923086;29;20071;-76
2021/04/29 08:37:27;;;;;;;10.65;3.95;;;;;;;13.28;59.98;95253.63;4924536;29;20053;-77
2021/04/29 08:39:52;;;;;;;10.10;3.80;;;;;;;13.13;60.36;95257.16;4939807;29;20044;-81
2021/04/29 08:42:18;;;;;;;13.70;4.40;;;;;;;13.27;60.26;95251.28;4925620;29;20087;-74
2021/04/29 08:44:44;;;;;;;10.00;4.63;;;;;;;13.11;59.79;95258.47;4922159;29;20048;-71
2021/04/29 08:47:10;;;;;;;11.10;4.03;;;;;;;12.75;60.57;95261.34;4916505;29;20047;-76
2021/04/29 08:49:38;;;;;;;10.35;5.03;;;;;;;12.61;61.34;95258.50;4925187;29;20069;-73
2021/04/29 08:52:06;;;;;;;9.25;4.80;;;;;;;12.40;62.17;95250.97;4926032;29;20107;-74
2021/04/29 08:54:35;;;;;;;9.95;4.72;;;;;;;12.41;62.16;95255.94;4937194;29;20044;-78
2021/04/29 08:57:01;;;;;;;9.32;4.47;;;;;;;12.67;61.69;95261.91;4916211;29;20035;-73
2021/04/29 08:59:27;;;;;;;9.35;4.60;;;;;;;12.64;61.62;95265.06;4936687;29;20456;-71
2021/04/29 09:01:53;;;;;;;11.02;4.50;;;;;;;12.73;62.09;95271.38;4918277;29;20108;-71
2021/04/29 09:04:21;;;;;;;9.93;4.65;;;;;;;12.66;61.92;95252.44;4906614;29;20100;-69
2021/04/29 09:06:47;;;;;;;10.25;4.88;;;;;;;12.76;62.10;95270.84;4901002;29;20064;-72
2021/04/29 09:09:15;;;;;;;10.10;4.50;;;;;;;13.00;61.22;95273.59;4908871;29;20071;-72
2021/04/29 09:11:50;;;;;;;11.02;4.43;;;;;;;13.32;59.92;95273.16;4916589;29;20119;-71
2021/04/29 09:14:27;;;;;;;9.98;4.63;;;;;;;13.44;59.67;95278.09;4917203;29;20063;-75
2021/04/29 09:16:53;;;;;;;10.80;4.90;;;;;;;13.53;59.29;95271.16;4925667;28;20024;-76
2021/04/29 09:19:21;;;;;;;12.15;5.10;;;;;;;13.46;59.78;95275.19;4933647;29;20088;-76
2021/04/29 09:21:47;;;;;;;9.20;4.32;;;;;;;13.60;59.39;95274.25;4926361;29;20072;-73
2021/04/29 09:24:14;;;;;;;10.23;4.85;;;;;;;13.36;60.21;95282.13;4921942;29;20044;-72
2021/04/29 09:26:40;;;;;;;11.23;5.10;;;;;;;13.31;59.96;95274.22;4906434;29;20064;-72
2021/04/29 09:29:08;;;;;;;12.00;5.20;;;;;;;13.51;59.38;95288.34;4908821;29;20068;-78
2021/04/29 09:31:37;;;;;;;;;;;;;;;13.15;59.93;95283.28;4907717;29;20046;-71
2021/04/29 09:34:03;;;;;;;10.82;4.85;;;;;;;13.12;60.11;95286.47;4927077;29;19927;-73
2021/04/29 09:36:30;;;;;;;11.65;4.63;;;;;;;13.18;59.00;95284.56;4901800;29;20424;-75
2021/04/29 09:39:01;;;;;;;9.80;4.68;;;;;;;13.77;57.39;95291.56;4905293;29;20055;-76
2021/04/29 09:41:32;;;;;;;9.85;4.55;;;;;;;13.66;56.97;95290.84;4915026;29;20044;-76
2021/04/29 09:44:00;;;;;;;10.68;4.80;;;;;;;13.95;56.52;95293.53;4907571;29;20051;-79
2021/04/29 09:46:38;;;;;;;10.02;4.70;;;;;;;14.01;55.95;95296.91;4904295;29;20072;-69
2021/04/29 09:49:19;;;;;;;10.73;4.90;;;;;;;13.71;56.14;95282.09;4922326;29;20040;-80
2021/04/29 09:51:45;;;;;;;9.75;4.63;;;;;;;13.88;56.75;95283.28;4919778;29;20036;-72
2021/04/29 09:54:10;;;;;;;10.70;5.07;;;;;;;13.99;55.37;95277.88;4924846;29;20048;-72
2021/04/29 09:56:40;;;;;;;10.23;4.88;;;;;;;14.09;54.88;95272.47;4931077;29;20120;-72
2021/04/29 09:59:06;;;;;;;11.40;4.82;;;;;;;14.27;54.43;95268.34;4922912;29;20040;-70
2021/04/29 10:01:33;;;;;;;11.40;4.88;;;;;;;14.69;53.15;95262.31;4927721;29;20142;-79
2021/04/29 10:04:01;;;;;;;9.30;4.78;;;;;;;14.95;52.49;95271.47;4929282;29;20127;-77
2021/04/29 10:06:26;;;;;;;11.32;5.15;;;;;;;15.06;52.31;95266.81;4926635;29;20049;-74
2021/04/29 10:08:52;;;;;;;11.38;5.25;;;;;;;14.86;52.49;95265.25;4909969;29;20044;-67
2021/04/29 10:11:22;;;;;;;11.32;5.25;;;;;;;15.13;51.24;95261.97;4916923;29;20071;-67
2021/04/29 10:13:53;;;;;;;10.27;5.07;;;;;;;15.20;51.07;95257.09;4917394;29;20111;-67
2021/04/29 10:16:22;;;;;;;10.23;5.43;;;;;;;15.03;51.15;95250.75;4917138;29;20075;-67
2021/04/29 10:18:49;;;;;;;13.13;5.53;;;;;;;14.80;51.96;95250.53;4918202;29;20052;-68
2021/04/29 10:21:19;;;;;;;12.20;5.50;;;;;;;14.97;51.66;95244.72;4917885;29;20103;-67
2021/04/29 10:23:46;;;;;;;13.85;5.75;;;;;;;14.81;51.63;95243.38;4918305;29;20044;-67
2021/04/29 10:26:11;;;;;;;11.52;6.10;;;;;;;15.09;51.31;95244.28;4917749;29;20072;-67
2021/04/29 10:28:42;;;;;;;12.63;5.70;;;;;;;14.99;51.32;95236.50;4915917;29;20060;-68
2021/04/29 10:31:17;;;;;;;13.38;6.47;;;;;;;15.25;51.31;95231.59;4915703;29;20516;-67
2021/04/29 10:33:52;;;;;;;11.82;5.80;;;;;;;15.30;51.00;95237.63;4916829;29;20127;-68
2021/04/29 10:36:19;;;;;;;12.43;6.60;;;;;;;15.51;50.40;95243.38;4915816;29;20115;-67
2021/04/29 10:38:45;;;;;;;12.43;6.03;;;;;;;15.60;50.08;95241.63;4918557;29;20091;-66
2021/04/29 10:41:19;;;;;;;13.23;5.78;;;;;;;15.60;49.81;95230.22;4921700;29;20056;-67
2021/04/29 10:43:46;;;;;;;10.98;5.72;;;;;;;15.68;49.25;95238.34;4917121;29;20047;-67
2021/04/29 10:46:26;;;;;;;10.77;5.50;;;;;;;15.56;49.56;95234.56;4917146;29;20040;-69
2021/04/29 10:48:52;;;;;;;14.95;5.97;;;;;;;15.20;49.75;95216.56;4915531;29;20132;-66
2021/04/29 10:51:21;;;;;;;12.15;6.07;;;;;;;15.66;49.37;95234.44;4916519;29;20127;-68
2021/04/29 10:53:47;;;;;;;11.48;5.85;;;;;;;15.61;49.25;95223.88;4916517;29;20052;-66
2021/04/29 10:56:15;;;;;;;10.57;5.88;;;;;;;15.53;49.13;95229.81;4916250;29;20044;-70
2021/04/29 10:58:41;;;;;;;10.60;5.95;;;;;;;15.75;49.12;95232.66;4915378;29;20108;-67
2021/04/29 11:01:12;;;;;;;11.73;5.78;;;;;;;16.15;47.83;95231.16;4916420;29;20044;-68
2021/04/29 11:03:41;;;;;;;14.02;6.25;;;;;;;15.96;47.33;95233.09;4918259;29;20051;-69
2021/04/29 11:06:13;;;;;;;11.73;5.70;;;;;;;15.24;49.80;95228.19;4915952;29;20056;-70
2021/04/29 11:08:42;;;;;;;13.35;6.00;;;;;;;15.45;49.33;95229.44;4917200;29;20044;-70
2021/04/29 11:11:26;;;;;;;10.57;5.28;;;;;;;15.68;48.00;95221.66;4919020;29;20040;-78
2021/04/29 11:14:00;;;;;;;11.07;5.47;;;;;;;15.83;48.30;95216.09;4918529;29;20221;-79
2021/04/29 11:16:26;;;;;;;12.43;5.80;;;;;;;15.58;48.39;95227.09;4923611;29;20501;-80
2021/04/29 11:18:55;;;;;;;11.15;6.03;;;;;;;15.38;48.54;95217.59;4922578;29;20044;-74
2021/04/29 11:21:25;;;;;;;10.90;6.03;;;;;;;15.53;48.66;95224.53;4924453;29;20074;-78
2021/04/29 11:23:51;;;;;;;12.40;5.65;;;;;;;15.58;49.09;95229.75;4922486;29;20055;-76
2021/04/29 11:26:19;;;;;;;12.20;6.15;;;;;;;15.79;47.86;95220.41;4923707;29;20052;-76
2021/04/29 11:28:45;;;;;;;;;;;;;;;15.63;48.03;95213.78;4930402;29;20099;-72
2021/04/29 11:31:11;;;;;;;12.70;5.40;;;;;;;15.71;48.22;95208.63;4926595;29;20387;-76
2021/04/29 11:33:38;;;;;;;11.15;5.38;;;;;;;16.26;46.76;95215.81;4927919;29;20096;-78